createdAt,value
2019-04-22T00:01:28.622Z,11.14
2019-04-22T00:04:06.118Z,11.13
2019-04-22T00:06:59.811Z,11.12
2019-04-22T00:09:31.080Z,11.11
2019-04-22T00:12:07.680Z,11.15
2019-04-22T00:14:36.604Z,11.19
2019-04-22T00:17:16.664Z,11.28
2019-04-22T00:19:52.385Z,11.42
2019-04-22T00:22:23.871Z,11.51
2019-04-22T00:25:01.122Z,11.58
2019-04-22T00:27:39.174Z,11.66
2019-04-22T00:30:07.930Z,11.73
2019-04-22T00:32:58.917Z,11.78
2019-04-22T00:35:33.295Z,11.82
2019-04-22T00:38:11.147Z,11.82
2019-04-22T00:40:42.435Z,11.80
2019-04-22T00:43:13.588Z,11.73
2019-04-22T00:48:44.562Z,11.58
2019-04-22T00:51:22.491Z,11.50
2019-04-22T00:53:36.074Z,11.42
2019-04-22T00:56:16.754Z,11.36
2019-04-22T00:58:45.121Z,11.26
2019-04-22T01:01:20.254Z,11.17
2019-04-22T01:04:04.261Z,11.08
2019-04-22T01:06:26.437Z,10.99
2019-04-22T01:09:04.345Z,10.92
2019-04-22T01:11:33.643Z,10.86
2019-04-22T01:14:06.541Z,10.83
2019-04-22T01:16:43.096Z,10.81
2019-04-22T01:19:23.525Z,10.79
2019-04-22T01:21:52.469Z,10.78
2019-04-22T01:24:24.767Z,10.77
2019-04-22T01:26:56.452Z,10.77
2019-04-22T01:29:22.795Z,10.75
2019-04-22T01:31:45.634Z,10.69
2019-04-22T01:34:33.617Z,10.63
2019-04-22T01:37:11.292Z,10.56
2019-04-22T01:39:49.785Z,10.49
2019-04-22T01:42:24.504Z,10.41
2019-04-22T01:44:59.035Z,10.32
2019-04-22T01:47:36.322Z,10.23
2019-04-22T01:50:06.228Z,10.19
2019-04-22T01:52:44.725Z,10.15
2019-04-22T01:55:17.807Z,10.12
2019-04-22T01:57:50.030Z,10.11
2019-04-22T02:00:12.567Z,10.15
2019-04-22T02:03:01.117Z,10.16
2019-04-22T02:05:28.669Z,10.18
2019-04-22T02:08:04.437Z,10.23
2019-04-22T02:10:44.344Z,10.25
2019-04-22T02:13:15.434Z,10.35
2019-04-22T02:15:47.847Z,10.45
2019-04-22T02:18:27.712Z,10.54
2019-04-22T02:20:48.857Z,10.59
2019-04-22T02:26:09.439Z,10.71
2019-04-22T02:34:09.648Z,10.77
2019-04-22T02:36:30.097Z,10.76
2019-04-22T02:41:35.041Z,10.83
2019-04-22T02:49:18.865Z,10.91
2019-04-22T02:51:44.416Z,10.93
2019-04-22T02:56:53.019Z,10.91
2019-04-22T02:59:36.968Z,10.91
2019-04-22T03:02:07.608Z,10.87
2019-04-22T03:04:39.398Z,10.80
2019-04-22T03:07:03.714Z,10.80
2019-04-22T03:09:51.773Z,10.76
2019-04-22T03:14:51.742Z,10.56
2019-04-22T03:17:30.864Z,10.43
2019-04-22T03:25:42.281Z,10.07
2019-04-22T03:45:30.184Z,9.26
2019-04-22T03:48:33.129Z,9.24
2019-04-22T03:50:39.426Z,9.21
2019-04-22T03:53:21.209Z,9.05
2019-04-22T03:55:59.698Z,8.93
2019-04-22T03:58:28.274Z,8.84
2019-04-22T04:01:11.053Z,8.80
2019-04-22T04:03:39.448Z,8.76
2019-04-22T04:06:06.867Z,8.72
2019-04-22T04:08:39.142Z,8.70
2019-04-22T04:11:24.619Z,8.74
2019-04-22T04:14:05.469Z,8.81
2019-04-22T04:16:35.009Z,8.85
2019-04-22T04:19:07.820Z,8.84
2019-04-22T04:24:25.854Z,8.87
2019-04-22T04:27:06.746Z,8.79
2019-04-22T04:32:09.359Z,8.76
2019-04-22T04:34:43.825Z,8.79
2019-04-22T04:37:15.090Z,8.79
2019-04-22T04:39:36.423Z,9.24
2019-04-22T04:42:14.410Z,9.86
2019-04-22T04:44:58.650Z,9.60
2019-04-22T04:47:25.836Z,9.89
2019-04-22T04:49:54.428Z,10.74
2019-04-22T04:52:39.302Z,10.63
2019-04-22T04:57:33.731Z,10.10
2019-04-22T05:00:31.942Z,10.08
2019-04-22T05:05:14.517Z,10.96
2019-04-22T05:15:27.614Z,12.61
2019-04-22T05:18:06.101Z,14.27
2019-04-22T05:22:59.430Z,14.42
2019-04-22T05:25:31.975Z,14.47
2019-04-22T05:28:11.880Z,14.78
2019-04-22T05:30:42.440Z,13.93
2019-04-22T05:33:22.853Z,13.23
2019-04-22T05:35:56.332Z,12.32
2019-04-22T05:38:33.210Z,12.16
2019-04-22T05:40:56.495Z,12.37
2019-04-22T05:43:38.562Z,12.76
2019-04-22T05:46:05.712Z,12.61
2019-04-22T05:51:24.273Z,12.41
2019-04-22T05:53:48.157Z,12.67
2019-04-22T05:56:28.702Z,12.48
2019-04-22T05:58:58.313Z,12.59
2019-04-22T06:01:38.922Z,12.43
2019-04-22T06:04:05.375Z,12.28
2019-04-22T06:06:37.095Z,12.02
2019-04-22T06:09:10.714Z,11.48
2019-04-22T06:11:42.825Z,11.09
2019-04-22T06:14:15.280Z,10.77
2019-04-22T06:16:57.167Z,10.89
2019-04-22T06:19:33.223Z,11.20
2019-04-22T06:22:04.286Z,11.53
2019-04-22T06:24:43.690Z,11.55
2019-04-22T06:27:21.797Z,11.53
2019-04-22T06:29:41.759Z,11.83
2019-04-22T06:32:26.291Z,12.37
2019-04-22T06:35:00.428Z,12.78
2019-04-22T06:37:59.770Z,12.91
2019-04-22T06:39:59.167Z,13.33
2019-04-22T06:42:36.546Z,14.32
2019-04-22T06:45:12.107Z,15.57
2019-04-22T06:50:28.407Z,15.95
2019-04-22T06:52:57.186Z,15.79
2019-04-22T06:55:33.244Z,15.52
2019-04-22T06:58:01.539Z,15.57
2019-04-22T07:00:36.937Z,15.19
2019-04-22T07:03:28.591Z,14.87
2019-04-22T07:05:57.006Z,14.74
2019-04-22T07:08:39.335Z,14.50
2019-04-22T07:13:29.924Z,14.06
2019-04-22T07:16:00.341Z,14.37
2019-04-22T07:23:46.045Z,14.15
2019-04-22T07:28:50.659Z,13.59
2019-04-22T07:31:24.876Z,13.38
2019-04-22T07:33:58.214Z,13.81
2019-04-22T07:36:45.694Z,14.15
2019-04-22T07:39:04.003Z,14.27
2019-04-22T07:41:42.991Z,14.31
2019-04-22T07:44:17.672Z,14.67
2019-04-22T07:46:56.525Z,14.97
2019-04-22T07:49:26.638Z,15.63
2019-04-22T07:51:57.683Z,16.43
2019-04-22T07:54:38.217Z,17.26
2019-04-22T07:57:17.939Z,17.65
2019-04-22T07:59:40.859Z,17.41
2019-04-22T08:02:21.691Z,16.98
2019-04-22T08:05:03.804Z,16.60
2019-04-22T08:07:24.109Z,16.54
2019-04-22T08:10:09.175Z,17.16
2019-04-22T08:12:36.091Z,17.51
2019-04-22T08:15:06.068Z,18.10
2019-04-22T08:20:19.026Z,18.98
2019-04-22T08:22:52.166Z,18.94
2019-04-22T08:25:20.386Z,19.31
2019-04-22T08:27:57.275Z,20.98
2019-04-22T08:30:34.885Z,25.80
2019-04-22T08:33:13.781Z,29.52
2019-04-22T08:35:53.861Z,28.37
2019-04-22T08:38:11.429Z,27.37
2019-04-22T08:41:16.425Z,24.75
2019-04-22T08:46:25.574Z,22.96
2019-04-22T08:51:25.450Z,24.63
2019-04-22T08:54:13.683Z,29.76
2019-04-22T08:56:37.609Z,30.11
2019-04-22T08:59:07.941Z,33.27
2019-04-22T09:01:37.687Z,38.16
2019-04-22T09:04:27.881Z,40.32
2019-04-22T09:07:07.505Z,42.94
2019-04-22T09:09:21.286Z,40.24
2019-04-22T09:12:00.208Z,40.82
2019-04-22T09:14:34.252Z,43.10
2019-04-22T09:17:04.095Z,38.15
2019-04-22T09:19:38.571Z,36.85
2019-04-22T09:22:15.978Z,39.01
2019-04-22T09:24:45.982Z,38.29
2019-04-22T09:27:24.681Z,29.87
2019-04-22T09:29:55.529Z,25.31
2019-04-22T09:32:31.706Z,29.84
2019-04-22T09:34:58.924Z,31.76
2019-04-22T09:42:43.730Z,28.57
2019-04-22T09:45:15.145Z,25.47
2019-04-22T09:47:56.870Z,23.65
2019-04-22T09:55:29.811Z,20.07
2019-04-22T09:58:04.511Z,20.08
2019-04-22T10:00:45.844Z,19.68
2019-04-22T10:03:17.855Z,20.18
2019-04-22T10:05:52.479Z,18.69
2019-04-22T10:08:38.389Z,19.51
2019-04-22T10:10:58.007Z,23.07
2019-04-22T10:13:34.539Z,30.73
2019-04-22T10:16:02.968Z,33.36
2019-04-22T10:18:43.715Z,33.86
2019-04-22T10:21:16.572Z,32.71
2019-04-22T10:23:45.836Z,34.83
2019-04-22T10:26:22.306Z,37.89
2019-04-22T10:31:32.873Z,42.08
2019-04-22T10:33:53.723Z,38.61
2019-04-22T10:36:11.293Z,38.59
2019-04-22T10:38:44.544Z,38.92
2019-04-22T10:41:16.748Z,40.36
2019-04-22T10:43:48.952Z,41.03
2019-04-22T10:46:22.475Z,33.99
2019-04-22T10:48:54.687Z,30.30
2019-04-22T10:51:26.886Z,33.36
2019-04-22T10:53:59.717Z,34.30
2019-04-22T10:56:34.845Z,35.06
2019-04-22T10:59:06.918Z,35.67
2019-04-22T11:01:42.384Z,37.21
2019-04-22T11:04:15.277Z,36.39
2019-04-22T11:06:53.068Z,36.57
2019-04-22T11:09:23.489Z,37.52
2019-04-22T11:12:02.082Z,36.28
2019-04-22T11:14:28.736Z,35.87
2019-04-22T11:17:03.398Z,38.54
2019-04-22T11:19:35.354Z,38.98
2019-04-22T11:22:15.204Z,33.26
2019-04-22T11:24:41.203Z,33.10
2019-04-22T11:27:14.755Z,32.78
2019-04-22T11:29:47.720Z,29.09
2019-04-22T11:32:20.421Z,25.78
2019-04-22T11:34:53.599Z,26.97
2019-04-22T11:37:25.984Z,23.86
2019-04-22T11:40:06.890Z,21.62
2019-04-22T11:42:32.280Z,20.32
2019-04-22T11:45:05.580Z,19.56
2019-04-22T11:47:39.251Z,19.16
2019-04-22T11:50:12.933Z,18.37
2019-04-22T11:52:45.043Z,17.98
2019-04-22T11:55:17.453Z,17.79
2019-04-22T11:57:49.972Z,17.86
2019-04-22T12:00:30.556Z,18.28
2019-04-22T12:03:03.239Z,18.07
2019-04-22T12:05:35.556Z,17.38
2019-04-22T12:08:09.335Z,17.14
2019-04-22T12:10:49.484Z,17.12
2019-04-22T12:13:15.878Z,17.27
2019-04-22T12:15:49.106Z,17.36
2019-04-22T12:18:22.879Z,17.36
2019-04-22T12:20:55.356Z,17.30
2019-04-22T12:23:27.441Z,17.20
2019-04-22T12:26:04.229Z,17.17
2019-04-22T12:28:33.321Z,17.23
2019-04-22T12:31:05.761Z,17.61
2019-04-22T12:33:39.185Z,17.74
2019-04-22T12:36:12.670Z,17.93
2019-04-22T12:38:45.370Z,18.05
2019-04-22T12:41:18.029Z,17.84
2019-04-22T12:43:51.606Z,17.90
2019-04-22T12:46:24.071Z,17.72
2019-04-22T12:48:58.258Z,17.33
2019-04-22T12:51:31.364Z,17.44
2019-04-22T12:54:03.629Z,17.87
2019-04-22T12:56:35.766Z,17.59
2019-04-22T12:59:07.844Z,17.42
2019-04-22T13:01:39.839Z,17.43
2019-04-22T13:04:15.536Z,18.03
2019-04-22T13:06:46.101Z,17.90
2019-04-22T13:09:19.539Z,17.88
2019-04-22T13:11:52.957Z,17.96
2019-04-22T13:14:25.159Z,18.01
2019-04-22T13:16:57.776Z,18.12
2019-04-22T13:19:30.268Z,18.08
2019-04-22T13:22:02.928Z,18.23
2019-04-22T13:24:36.146Z,18.07
2019-04-22T13:27:10.862Z,17.82
2019-04-22T13:29:43.453Z,17.63
2019-04-22T13:32:16.554Z,17.42
2019-04-22T13:34:53.320Z,17.28
2019-04-22T13:37:23.255Z,17.28
2019-04-22T13:39:56.844Z,17.20
2019-04-22T13:42:30.123Z,17.36
2019-04-22T13:45:04.048Z,17.41
2019-04-22T13:47:54.692Z,17.39
2019-04-22T13:50:54.484Z,17.71
2019-04-22T13:53:30.379Z,18.20
2019-04-22T13:55:48.174Z,18.75
2019-04-22T13:58:09.727Z,18.60
2019-04-22T14:00:32.406Z,18.06
2019-04-22T14:03:26.755Z,17.12
2019-04-22T14:05:58.883Z,16.23
2019-04-22T14:08:31.333Z,15.50
2019-04-22T14:11:13.195Z,14.92
2019-04-22T14:13:37.749Z,14.60
2019-04-22T14:16:11.015Z,14.47
2019-04-22T14:18:45.954Z,14.67
2019-04-22T14:21:17.110Z,15.09
2019-04-22T14:23:49.124Z,15.24
2019-04-22T14:26:23.059Z,15.07
2019-04-22T14:28:55.732Z,14.80
2019-04-22T14:31:28.808Z,14.76
2019-04-22T14:34:05.142Z,14.81
2019-04-22T14:36:35.310Z,14.87
2019-04-22T14:39:10.322Z,14.91
2019-04-22T14:41:57.570Z,15.07
2019-04-22T14:45:16.926Z,15.22
2019-04-22T14:47:17.618Z,15.43
2019-04-22T14:49:47.319Z,15.76
2019-04-22T14:52:21.487Z,16.17
2019-04-22T14:54:45.938Z,16.62
2019-04-22T14:57:07.446Z,16.63
2019-04-22T14:59:39.894Z,16.39
2019-04-22T15:02:13.936Z,16.27
2019-04-22T15:04:46.143Z,16.23
2019-04-22T15:07:19.185Z,16.35
2019-04-22T15:09:52.265Z,16.01
2019-04-22T15:12:31.263Z,15.68
2019-04-22T15:14:59.737Z,15.60
2019-04-22T15:17:38.852Z,15.52
2019-04-22T15:20:19.631Z,15.54
2019-04-22T15:22:53.084Z,15.45
2019-04-22T15:25:28.300Z,15.52
2019-04-22T15:28:01.521Z,15.47
2019-04-22T15:30:35.139Z,15.46
2019-04-22T15:33:07.485Z,15.39
2019-04-22T15:35:41.042Z,15.49
2019-04-22T15:38:13.290Z,15.56
2019-04-22T15:40:45.269Z,15.59
2019-04-22T15:43:17.387Z,15.62
2019-04-22T15:45:50.780Z,15.63
2019-04-22T15:48:23.255Z,15.56
2019-04-22T15:50:55.341Z,15.55
2019-04-22T15:53:27.659Z,15.59
2019-04-22T15:56:00.802Z,15.65
2019-04-22T15:58:33.553Z,15.57
2019-04-22T16:01:12.977Z,15.47
2019-04-22T16:03:40.661Z,15.36
2019-04-22T16:06:12.794Z,15.38
2019-04-22T16:08:45.793Z,15.32
2019-04-22T16:11:18.192Z,15.20
2019-04-22T16:13:52.488Z,15.15
2019-04-22T16:16:24.846Z,15.15
2019-04-22T16:18:58.453Z,15.14
2019-04-22T16:21:40.543Z,15.20
2019-04-22T16:24:28.143Z,15.21
2019-04-22T16:27:06.554Z,15.24
2019-04-22T16:29:39.271Z,15.18
2019-04-22T16:32:11.550Z,15.15
2019-04-22T16:34:43.540Z,15.12
2019-04-22T16:37:16.758Z,15.11
2019-04-22T16:39:50.477Z,15.12
2019-04-22T16:42:30.220Z,15.11
2019-04-22T16:44:57.587Z,15.09
2019-04-22T16:47:31.363Z,15.05
2019-04-22T16:50:03.787Z,15.06
2019-04-22T16:52:36.291Z,15.02
2019-04-22T16:55:10.599Z,15.01
2019-04-22T16:57:44.113Z,15.02
2019-04-22T17:00:18.570Z,14.99
2019-04-22T17:03:06.652Z,14.96
2019-04-22T17:06:05.367Z,14.93
2019-04-22T17:08:38.915Z,14.88
2019-04-22T17:11:11.764Z,14.83
2019-04-22T17:13:44.619Z,14.78
2019-04-22T17:16:18.036Z,14.75
2019-04-22T17:18:50.394Z,14.69
2019-04-22T17:21:23.612Z,14.65
2019-04-22T17:23:56.987Z,14.60
2019-04-22T17:26:30.360Z,14.59
2019-04-22T17:29:06.216Z,14.57
2019-04-22T17:31:40.194Z,14.52
2019-04-22T17:34:13.410Z,14.48
2019-04-22T17:36:46.238Z,14.45
2019-04-22T17:39:32.962Z,14.40
2019-04-22T17:42:11.192Z,14.35
2019-04-22T17:44:49.810Z,14.28
2019-04-22T17:47:31.765Z,14.24
2019-04-22T17:50:11.740Z,14.18
2019-04-22T17:52:42.659Z,14.11
2019-04-22T17:55:21.379Z,14.06
2019-04-22T17:57:49.502Z,14.01
2019-04-22T18:00:25.449Z,13.96
2019-04-22T18:02:54.748Z,13.92
2019-04-22T18:05:22.180Z,13.87
2019-04-22T18:08:11.710Z,13.81
2019-04-22T18:10:40.627Z,13.76
2019-04-22T18:13:30.399Z,13.71
2019-04-22T18:15:54.768Z,13.66
2019-04-22T18:18:33.213Z,13.63
2019-04-22T18:20:56.343Z,13.59
2019-04-22T18:23:20.835Z,13.54
2019-04-22T18:26:05.332Z,13.51
2019-04-22T18:28:43.530Z,13.46
2019-04-22T18:31:12.125Z,13.42
2019-04-22T18:33:47.923Z,13.37
2019-04-22T18:36:19.282Z,13.31
2019-04-22T18:39:06.267Z,13.27
2019-04-22T18:41:30.355Z,13.23
2019-04-22T18:44:04.382Z,13.19
2019-04-22T18:46:36.879Z,13.14
2019-04-22T18:49:12.400Z,13.11
2019-04-22T18:51:51.393Z,13.05
2019-04-22T18:54:36.015Z,13.02
2019-04-22T18:57:13.779Z,12.96
2019-04-22T18:59:33.657Z,12.92
2019-04-22T19:02:07.805Z,12.86
2019-04-22T19:04:47.262Z,12.81
2019-04-22T19:07:36.873Z,12.75
2019-04-22T19:10:10.616Z,12.70
2019-04-22T19:12:48.806Z,12.64
2019-04-22T19:15:19.063Z,12.59
2019-04-22T19:17:54.386Z,12.59
2019-04-22T19:20:29.622Z,12.56
2019-04-22T19:22:57.514Z,12.52
2019-04-22T19:25:24.058Z,12.50
2019-04-22T19:28:14.180Z,12.48
2019-04-22T19:30:41.515Z,12.46
2019-04-22T19:33:11.214Z,12.43
2019-04-22T19:35:40.434Z,12.41
2019-04-22T19:38:12.186Z,12.39
2019-04-22T19:41:03.044Z,12.33
2019-04-22T19:43:28.639Z,12.28
2019-04-22T19:45:58.914Z,12.27
2019-04-22T19:48:39.697Z,12.29
2019-04-22T19:51:34.016Z,12.28
2019-04-22T19:53:46.696Z,12.22
2019-04-22T19:56:11.707Z,12.17
2019-04-22T19:58:47.697Z,12.15
2019-04-22T20:01:49.508Z,12.14
2019-04-22T20:04:46.301Z,12.06
2019-04-22T20:07:12.733Z,12.06
2019-04-22T20:09:55.139Z,12.02
2019-04-22T20:12:21.382Z,12.00
2019-04-22T20:14:54.477Z,11.96
2019-04-22T20:17:40.944Z,11.94
2019-04-22T20:20:09.664Z,11.89
2019-04-22T20:22:37.245Z,11.88
2019-04-22T20:25:05.425Z,11.86
2019-04-22T20:27:54.655Z,11.82
2019-04-22T20:30:28.271Z,11.75
2019-04-22T20:32:56.666Z,11.71
2019-04-22T20:35:32.757Z,11.67
2019-04-22T20:38:10.736Z,11.63
2019-04-22T20:40:41.424Z,11.60
2019-04-22T20:43:22.061Z,11.55
2019-04-22T20:45:47.950Z,11.52
2019-04-22T20:48:07.980Z,11.52
2019-04-22T20:50:54.142Z,11.47
2019-04-22T20:53:30.180Z,11.39
2019-04-22T20:56:08.926Z,11.41
2019-04-22T20:58:42.823Z,11.35
2019-04-22T21:00:59.863Z,11.37
2019-04-22T21:03:32.980Z,11.35
2019-04-22T21:06:13.073Z,11.32
2019-04-22T21:08:57.984Z,11.26
2019-04-22T21:11:27.805Z,11.20
2019-04-22T21:13:55.993Z,11.18
2019-04-22T21:16:32.822Z,11.15
2019-04-22T21:19:11.735Z,11.14
2019-04-22T21:21:47.025Z,11.07
2019-04-22T21:24:09.274Z,11.03
2019-04-22T21:26:43.777Z,10.99
2019-04-22T21:29:17.276Z,10.94
2019-04-22T21:31:57.850Z,10.93
2019-04-22T21:34:32.293Z,10.88
2019-04-22T21:37:15.984Z,10.87
2019-04-22T21:39:40.229Z,10.83
2019-04-22T21:42:11.820Z,10.81
2019-04-22T21:44:45.570Z,10.78
2019-04-22T21:47:28.698Z,10.71
2019-04-22T21:50:19.682Z,10.68
2019-04-22T21:52:34.575Z,10.64
2019-04-22T21:55:14.488Z,10.61
2019-04-22T21:58:02.546Z,10.55
2019-04-22T22:00:43.223Z,10.55
2019-04-22T22:03:15.403Z,10.50
2019-04-22T22:05:35.497Z,10.46
2019-04-22T22:08:23.436Z,10.41
2019-04-22T22:10:54.758Z,10.35
2019-04-22T22:13:29.355Z,10.29
2019-04-22T22:16:00.137Z,10.24
2019-04-22T22:18:30.325Z,10.19
2019-04-22T22:21:28.365Z,10.15
2019-04-22T22:23:45.646Z,10.08
2019-04-22T22:26:09.800Z,10.04
2019-04-22T22:31:33.194Z,9.98
2019-04-22T22:34:04.119Z,9.94
2019-04-22T22:36:23.786Z,9.89
2019-04-22T22:39:00.701Z,9.86
2019-04-22T22:41:18.412Z,9.82
2019-04-22T22:43:53.107Z,9.77
2019-04-22T22:46:34.169Z,9.74
2019-04-22T22:49:23.337Z,9.69
2019-04-22T22:52:11.871Z,9.65
2019-04-22T22:54:33.074Z,9.61
2019-04-22T22:57:01.963Z,9.58
2019-04-22T22:59:33.186Z,9.53
2019-04-22T23:02:08.090Z,9.47
2019-04-22T23:04:48.753Z,9.44
2019-04-22T23:07:25.613Z,9.42
2019-04-22T23:09:49.011Z,9.34
2019-04-22T23:14:57.613Z,9.24
2019-04-22T23:17:16.666Z,9.23
2019-04-22T23:19:50.357Z,9.17
2019-04-22T23:22:28.385Z,9.13
2019-04-22T23:25:16.035Z,9.10
2019-04-22T23:27:46.537Z,9.02
2019-04-22T23:30:33.872Z,9.00
2019-04-22T23:33:09.895Z,8.99
2019-04-22T23:36:03.737Z,8.95
2019-04-22T23:38:53.696Z,8.90
2019-04-22T23:41:47.632Z,8.85
2019-04-22T23:44:13.858Z,8.83
2019-04-22T23:46:52.249Z,8.78
2019-04-22T23:49:25.329Z,8.77
2019-04-22T23:52:13.050Z,8.75
2019-04-22T23:54:43.588Z,8.71
2019-04-22T23:57:15.447Z,8.69
